METAR Formatted Surface Weather Observation
Issued by NWS

Home | Current Version | Previous Version | Text Only | Print | Product List | Glossary On
Versions: 1 2 3 4 5 6 7 8 9 10 11 12 13 14 15 16 17 18 19 20 21 22 23 24 25 26 27 28 29 30 31 32 33 34 35 36 37 38 39 40 41 42 43 44 45 46 47 48 49 50
000
SAUS43 KAPX 202355
MTRAPN
METAR KAPN 202354Z AUTO 15003KT 10SM BKN085 07/03 A3007 RMK AO2
SLP186 60000 T00720028 10122 20067 56024



USA.gov is the U.S. government's official web portal to all federal, state and local government web resources and services.